Time;durP1;ratioP1;P1;durP2;ratioP2;P2;SDS_P1;SDS_P2;PMS_P1;PMS_P2;Temp;Humidity;BMP_temperature;BMP_pressure;BME280_temperature;BME280_humidity;BME280_pressure;Samples;Min_cycle;Max_cycle;Signal;HPM_P1;HPM_P2
2021/11/06 00:00:00;;;;;;;15.02;8.40;;;;;;;;;;5067828;28;20063;-73
2021/11/06 00:02:27;;;;;;;13.32;7.68;;;;;;;;;;5057874;28;20033;-72
2021/11/06 00:04:53;;;;;;;12.55;7.57;;;;;;;;;;5076809;28;20024;-72
2021/11/06 00:07:19;;;;;;;13.23;7.93;;;;;;;;;;5057267;28;20684;-73
2021/11/06 00:09:45;;;;;;;10.55;6.40;;;;;;;;;;5056688;28;20044;-72
2021/11/06 00:12:11;;;;;;;13.15;6.97;;;;;;;;;;5060559;28;20020;-73
2021/11/06 00:14:37;;;;;;;12.77;7.30;;;;;;;;;;5083857;28;20767;-73
2021/11/06 00:17:03;;;;;;;18.30;12.25;;;;;;;;;;5060457;28;20213;-73
2021/11/06 00:19:29;;;;;;;20.05;11.07;;;;;;;;;;5082187;28;20036;-73
2021/11/06 00:21:55;;;;;;;22.65;13.45;;;;;;;;;;5061245;28;20040;-73
2021/11/06 00:24:22;;;;;;;19.88;12.95;;;;;;;;;;5073465;28;20409;-73
2021/11/06 00:26:49;;;;;;;24.15;14.35;;;;;;;;;;5059011;28;20096;-73
2021/11/06 00:29:19;;;;;;;18.30;11.60;;;;;;;;;;5058565;28;20140;-73
2021/11/06 00:31:45;;;;;;;16.45;9.50;;;;;;;;;;5055059;28;20052;-73
2021/11/06 00:34:11;;;;;;;21.20;11.63;;;;;;;;;;5073109;28;20079;-73
2021/11/06 00:36:37;;;;;;;17.13;9.57;;;;;;;;;;5056367;28;20670;-73
2021/11/06 00:39:03;;;;;;;19.85;10.88;;;;;;;;;;5058338;28;20037;-73
2021/11/06 00:41:30;;;;;;;17.55;10.27;;;;;;;;;;5061281;28;20028;-73
2021/11/06 00:43:56;;;;;;;19.17;10.00;;;;;;;;;;5072226;28;20115;-73
2021/11/06 00:46:22;;;;;;;16.90;10.27;;;;;;;;;;5065287;28;20068;-72
2021/11/06 00:48:48;;;;;;;19.27;12.35;;;;;;;;;;5059883;28;20064;-73
2021/11/06 00:51:14;;;;;;;23.55;13.10;;;;;;;;;;5059182;28;20489;-73
2021/11/06 00:53:40;;;;;;;25.27;16.15;;;;;;;;;;5064245;28;20108;-72
2021/11/06 00:56:06;;;;;;;24.50;14.55;;;;;;;;;;5069139;28;20044;-73
2021/11/06 00:58:32;;;;;;;17.80;10.27;;;;;;;;;;5060278;28;20078;-73
2021/11/06 01:00:58;;;;;;;14.43;7.88;;;;;;;;;;5060274;28;20048;-72
2021/11/06 01:03:24;;;;;;;11.75;6.85;;;;;;;;;;5055243;28;20032;-72
2021/11/06 01:05:50;;;;;;;9.55;5.53;;;;;;;;;;5072068;28;20101;-73
2021/11/06 01:08:16;;;;;;;10.95;4.97;;;;;;;;;;5060115;28;20043;-72
2021/11/06 01:10:43;;;;;;;10.30;5.93;;;;;;;;;;5066171;28;20044;-73
2021/11/06 01:13:11;;;;;;;10.35;6.50;;;;;;;;;;5047350;28;20035;-73
2021/11/06 01:15:37;;;;;;;13.18;7.60;;;;;;;;;;5048634;28;20029;-73
2021/11/06 01:18:03;;;;;;;12.25;7.28;;;;;;;;;;5055862;28;20039;-72
2021/11/06 01:20:29;;;;;;;13.73;8.68;;;;;;;;;;5082561;28;20034;-72
2021/11/06 01:22:55;;;;;;;13.60;8.75;;;;;;;;;;5063335;28;20060;-73
2021/11/06 01:25:21;;;;;;;14.23;9.25;;;;;;;;;;5062917;28;20420;-73
2021/11/06 01:27:47;;;;;;;16.25;8.13;;;;;;;;;;5061154;28;20033;-73
2021/11/06 01:30:14;;;;;;;17.35;9.73;;;;;;;;;;5063456;28;20107;-73
2021/11/06 01:32:40;;;;;;;15.65;9.98;;;;;;;;;;5061874;28;20037;-73
2021/11/06 01:35:07;;;;;;;17.27;9.68;;;;;;;;;;5063496;28;20714;-73
2021/11/06 01:37:33;;;;;;;16.83;10.20;;;;;;;;;;5052818;28;20028;-73
2021/11/06 01:39:59;;;;;;;16.25;10.43;;;;;;;;;;5066896;28;20115;-73
2021/11/06 01:42:27;;;;;;;13.85;7.47;;;;;;;;;;5058610;28;20489;-73
2021/11/06 01:44:53;;;;;;;15.02;8.07;;;;;;;;;;5059528;28;20030;-73
2021/11/06 01:47:19;;;;;;;17.98;8.68;;;;;;;;;;5055637;28;20065;-72
2021/11/06 01:49:45;;;;;;;12.65;8.50;;;;;;;;;;5058020;28;20378;-72
2021/11/06 01:52:11;;;;;;;15.07;7.32;;;;;;;;;;5070653;28;20107;-73
2021/11/06 01:54:37;;;;;;;15.57;8.48;;;;;;;;;;5051568;28;20035;-73
2021/11/06 01:57:03;;;;;;;12.18;7.43;;;;;;;;;;5060237;28;20025;-73
2021/11/06 01:59:29;;;;;;;17.75;8.95;;;;;;;;;;5055901;28;20063;-73
2021/11/06 02:01:56;;;;;;;13.50;8.10;;;;;;;;;;5058394;28;20068;-72
2021/11/06 02:04:22;;;;;;;12.00;7.45;;;;;;;;;;5054753;28;20052;-72
2021/11/06 02:06:48;;;;;;;11.77;7.53;;;;;;;;;;5060560;28;20120;-73
2021/11/06 02:09:14;;;;;;;15.02;9.20;;;;;;;;;;5046183;28;20029;-73
2021/11/06 02:11:41;;;;;;;15.43;7.57;;;;;;;;;;5069532;28;20168;-73
2021/11/06 02:14:07;;;;;;;15.25;9.63;;;;;;;;;;5059410;28;20033;-73
2021/11/06 02:16:33;;;;;;;16.77;8.30;;;;;;;;;;5058532;28;20029;-73
2021/11/06 02:19:00;;;;;;;15.73;9.18;;;;;;;;;;5054966;28;20028;-72
2021/11/06 02:21:26;;;;;;;33.58;17.88;;;;;;;;;;5054552;28;20103;-73
2021/11/06 02:23:52;;;;;;;26.20;14.02;;;;;;;;;;5054310;28;20104;-73
2021/11/06 02:26:19;;;;;;;16.20;10.35;;;;;;;;;;5068380;28;20047;-72
2021/11/06 02:28:51;;;;;;;18.67;11.90;;;;;;;;;;5072381;28;20037;-72
2021/11/06 02:31:17;;;;;;;12.73;7.55;;;;;;;;;;5054151;28;20721;-73
2021/11/06 02:33:43;;;;;;;20.00;11.02;;;;;;;;;;5052262;28;20094;-74
2021/11/06 02:36:10;;;;;;;15.10;8.82;;;;;;;;;;5053259;28;20021;-72
2021/11/06 02:38:36;;;;;;;14.85;8.20;;;;;;;;;;5054741;28;20269;-73
2021/11/06 02:41:02;;;;;;;13.80;7.85;;;;;;;;;;5076993;28;20025;-73
2021/11/06 02:43:28;;;;;;;15.90;9.48;;;;;;;;;;5056678;28;20043;-73
2021/11/06 02:45:55;;;;;;;19.60;11.20;;;;;;;;;;5065677;28;20545;-73
2021/11/06 02:48:21;;;;;;;18.92;11.40;;;;;;;;;;5056982;28;20481;-72
2021/11/06 02:50:47;;;;;;;19.52;11.43;;;;;;;;;;5066391;28;20051;-72
2021/11/06 02:53:13;;;;;;;16.02;9.30;;;;;;;;;;5049336;28;20037;-72
2021/11/06 02:55:39;;;;;;;14.35;9.15;;;;;;;;;;5056646;28;20035;-73
2021/11/06 02:58:05;;;;;;;16.40;9.50;;;;;;;;;;5054317;28;20448;-73
2021/11/06 03:00:32;;;;;;;13.93;8.57;;;;;;;;;;5068996;28;20532;-73
2021/11/06 03:02:59;;;;;;;15.98;8.43;;;;;;;;;;5058097;28;20129;-72
2021/11/06 03:05:25;;;;;;;13.32;7.95;;;;;;;;;;5063571;28;20036;-73
2021/11/06 03:07:52;;;;;;;14.80;7.35;;;;;;;;;;5050550;28;20033;-72
2021/11/06 03:10:18;;;;;;;13.52;8.02;;;;;;;;;;5072097;28;20045;-73
2021/11/06 03:12:45;;;;;;;13.13;7.47;;;;;;;;;;5061847;28;20035;-73
2021/11/06 03:15:11;;;;;;;13.68;7.38;;;;;;;;;;5064446;28;20028;-73
2021/11/06 03:17:37;;;;;;;11.93;7.10;;;;;;;;;;5056908;28;20028;-73
2021/11/06 03:20:04;;;;;;;15.90;7.07;;;;;;;;;;5062177;28;20059;-72
2021/11/06 03:22:31;;;;;;;14.38;8.55;;;;;;;;;;5072119;28;20029;-73
2021/11/06 03:24:57;;;;;;;13.30;7.78;;;;;;;;;;5064553;28;20530;-72
2021/11/06 03:27:23;;;;;;;13.77;8.30;;;;;;;;;;5055298;28;20155;-74
2021/11/06 03:29:49;;;;;;;16.40;9.02;;;;;;;;;;5060928;28;20040;-73
2021/11/06 03:32:15;;;;;;;13.57;8.32;;;;;;;;;;5059974;28;20057;-73
2021/11/06 03:34:42;;;;;;;15.32;8.00;;;;;;;;;;5060332;28;20099;-72
2021/11/06 03:37:08;;;;;;;10.90;7.38;;;;;;;;;;5068904;28;20031;-72
2021/11/06 03:39:35;;;;;;;14.10;7.53;;;;;;;;;;5064361;28;20037;-72
2021/11/06 03:42:01;;;;;;;13.38;7.60;;;;;;;;;;5061621;28;20037;-72
2021/11/06 03:44:27;;;;;;;15.30;8.25;;;;;;;;;;5057718;28;20041;-72
2021/11/06 03:46:53;;;;;;;11.57;5.90;;;;;;;;;;5060346;28;20071;-72
2021/11/06 03:49:19;;;;;;;13.45;7.45;;;;;;;;;;5056782;28;20762;-72
2021/11/06 03:51:45;;;;;;;9.80;6.10;;;;;;;;;;5069830;28;20031;-73
2021/11/06 03:54:11;;;;;;;12.27;6.88;;;;;;;;;;5062589;28;20025;-72
2021/11/06 03:56:37;;;;;;;16.10;9.18;;;;;;;;;;5071850;28;20039;-72
2021/11/06 03:59:03;;;;;;;12.93;7.43;;;;;;;;;;5068636;28;20066;-73
2021/11/06 04:01:31;;;;;;;17.25;10.15;;;;;;;;;;5056000;28;20052;-73
2021/11/06 04:03:57;;;;;;;13.82;7.18;;;;;;;;;;5081904;28;20037;-72
2021/11/06 04:06:23;;;;;;;10.35;6.55;;;;;;;;;;5052891;28;20036;-72
2021/11/06 04:08:51;;;;;;;12.10;5.93;;;;;;;;;;5080334;28;20036;-72
2021/11/06 04:11:18;;;;;;;13.52;6.18;;;;;;;;;;5061981;28;20028;-73
2021/11/06 04:13:45;;;;;;;10.18;6.03;;;;;;;;;;5071389;28;20029;-72
2021/11/06 04:16:11;;;;;;;10.43;5.90;;;;;;;;;;5060277;28;20029;-72
2021/11/06 04:18:37;;;;;;;12.32;7.15;;;;;;;;;;5055429;28;20070;-72
2021/11/06 04:21:04;;;;;;;13.27;6.70;;;;;;;;;;5051702;28;20029;-73
2021/11/06 04:23:29;;;;;;;11.52;6.40;;;;;;;;;;5082017;28;20040;-73
2021/11/06 04:25:56;;;;;;;11.18;6.45;;;;;;;;;;5060266;28;20040;-72
2021/11/06 04:28:22;;;;;;;11.18;6.22;;;;;;;;;;5076979;28;20028;-72
2021/11/06 04:30:48;;;;;;;9.02;5.38;;;;;;;;;;5059932;28;20036;-72
2021/11/06 04:33:14;;;;;;;10.20;5.55;;;;;;;;;;5072069;28;20039;-72
2021/11/06 04:35:40;;;;;;;10.75;6.13;;;;;;;;;;5062913;28;20681;-72
2021/11/06 04:38:06;;;;;;;11.30;6.90;;;;;;;;;;5070259;28;20540;-72
2021/11/06 04:40:32;;;;;;;12.85;5.90;;;;;;;;;;5055716;28;20071;-72
2021/11/06 04:42:58;;;;;;;11.35;6.13;;;;;;;;;;5064121;28;20033;-72
2021/11/06 04:45:24;;;;;;;11.23;5.88;;;;;;;;;;5061079;28;20047;-72
2021/11/06 04:47:50;;;;;;;8.93;5.28;;;;;;;;;;5061367;28;20035;-72
2021/11/06 04:50:16;;;;;;;9.30;6.13;;;;;;;;;;5074561;28;20086;-72
2021/11/06 04:52:42;;;;;;;10.20;5.95;;;;;;;;;;5065384;28;20058;-72
2021/11/06 04:55:10;;;;;;;10.55;6.45;;;;;;;;;;5061142;28;20068;-72
2021/11/06 04:57:36;;;;;;;10.95;6.57;;;;;;;;;;5079676;28;20052;-73
2021/11/06 05:00:06;;;;;;;10.18;6.20;;;;;;;;;;5023251;28;20069;-72
2021/11/06 05:02:33;;;;;;;9.20;5.72;;;;;;;;;;5035965;28;20107;-72
2021/11/06 05:04:59;;;;;;;9.65;5.35;;;;;;;;;;5023044;28;20042;-72
2021/11/06 05:07:25;;;;;;;11.77;6.30;;;;;;;;;;5033016;28;20144;-72
2021/11/06 05:09:51;;;;;;;13.73;6.20;;;;;;;;;;5019928;28;20041;-72
2021/11/06 05:12:20;;;;;;;11.80;6.72;;;;;;;;;;5025660;28;21474;-72
2021/11/06 05:14:49;;;;;;;14.07;6.25;;;;;;;;;;5027082;28;20852;-72
2021/11/06 05:17:16;;;;;;;12.25;6.13;;;;;;;;;;5027419;28;20128;-72
2021/11/06 05:19:43;;;;;;;11.63;6.18;;;;;;;;;;5042376;28;20465;-72
2021/11/06 05:22:09;;;;;;;13.10;5.78;;;;;;;;;;5030941;28;20033;-72
2021/11/06 05:24:35;;;;;;;11.90;6.72;;;;;;;;;;5028451;28;20041;-73
2021/11/06 05:27:02;;;;;;;18.27;10.25;;;;;;;;;;5020692;28;20479;-73
2021/11/06 05:29:28;;;;;;;14.98;9.27;;;;;;;;;;5027956;28;20042;-73
2021/11/06 05:31:53;;;;;;;14.43;8.43;;;;;;;;;;5013908;28;20028;-73
2021/11/06 05:34:20;;;;;;;16.13;7.75;;;;;;;;;;5031063;28;20025;-72
2021/11/06 05:36:46;;;;;;;10.45;6.53;;;;;;;;;;5016997;28;20137;-72
2021/11/06 05:39:12;;;;;;;12.90;6.80;;;;;;;;;;5033942;28;20434;-73
2021/11/06 05:41:38;;;;;;;9.88;5.47;;;;;;;;;;5015586;28;20129;-72
2021/11/06 05:44:04;;;;;;;14.10;7.05;;;;;;;;;;5041411;28;20040;-73
2021/11/06 05:46:30;;;;;;;12.35;4.97;;;;;;;;;;5018533;28;20038;-72
2021/11/06 05:48:56;;;;;;;13.15;5.90;;;;;;;;;;5018741;28;20042;-72
2021/11/06 05:51:23;;;;;;;13.80;6.13;;;;;;;;;;5010499;28;20041;-73
2021/11/06 05:53:49;;;;;;;10.57;5.20;;;;;;;;;;5036591;28;20020;-72
2021/11/06 05:56:16;;;;;;;19.85;10.90;;;;;;;;;;5017306;28;20049;-72
2021/11/06 05:58:42;;;;;;;14.43;8.32;;;;;;;;;;5045560;28;20051;-73
2021/11/06 06:01:08;;;;;;;13.30;7.97;;;;;;;;;;5068689;28;20439;-72
2021/11/06 06:03:34;;;;;;;12.90;7.80;;;;;;;;;;5066857;28;20032;-72
2021/11/06 06:06:00;;;;;;;14.25;8.70;;;;;;;;;;5063318;28;20030;-73
2021/11/06 06:08:26;;;;;;;14.00;7.40;;;;;;;;;;5050381;28;20044;-72
2021/11/06 06:10:53;;;;;;;13.32;7.47;;;;;;;;;;5057084;28;20504;-72
2021/11/06 06:13:19;;;;;;;14.43;8.30;;;;;;;;;;5055636;28;20072;-72
2021/11/06 06:15:45;;;;;;;13.10;8.35;;;;;;;;;;5057595;28;20043;-72
2021/11/06 06:18:11;;;;;;;18.45;10.30;;;;;;;;;;5061893;28;20027;-72
2021/11/06 06:20:37;;;;;;;17.58;11.20;;;;;;;;;;5056090;28;20158;-73
2021/11/06 06:23:04;;;;;;;18.35;11.45;;;;;;;;;;5060215;28;20073;-72
2021/11/06 06:25:30;;;;;;;17.15;10.35;;;;;;;;;;5058705;28;20029;-72
2021/11/06 06:27:56;;;;;;;18.38;10.82;;;;;;;;;;5065377;28;20039;-72
2021/11/06 06:30:22;;;;;;;19.33;9.90;;;;;;;;;;5056061;28;20043;-72
2021/11/06 06:32:48;;;;;;;15.48;10.55;;;;;;;;;;5064550;28;20028;-72
2021/11/06 06:35:16;;;;;;;18.05;9.60;;;;;;;;;;5051876;28;20056;-72
2021/11/06 06:37:42;;;;;;;18.00;11.80;;;;;;;;;;5060584;28;20036;-72
2021/11/06 06:40:09;;;;;;;16.50;9.52;;;;;;;;;;5058208;28;20053;-72
2021/11/06 06:42:35;;;;;;;15.80;9.55;;;;;;;;;;5058984;28;20041;-72
2021/11/06 06:45:01;;;;;;;19.58;8.88;;;;;;;;;;5056439;28;20036;-72
2021/11/06 06:47:27;;;;;;;14.13;7.60;;;;;;;;;;5060168;28;20036;-72
2021/11/06 06:49:53;;;;;;;14.65;8.15;;;;;;;;;;5064167;28;20078;-72
2021/11/06 06:52:19;;;;;;;15.23;8.48;;;;;;;;;;5058105;28;20028;-73
2021/11/06 06:54:45;;;;;;;14.57;8.68;;;;;;;;;;5062991;28;20377;-72
2021/11/06 06:57:11;;;;;;;15.48;9.13;;;;;;;;;;5051341;28;20025;-72
2021/11/06 06:59:37;;;;;;;16.85;8.27;;;;;;;;;;5050876;28;20041;-72
2021/11/06 07:02:05;;;;;;;17.80;10.48;;;;;;;;;;5050345;28;20029;-72
2021/11/06 07:04:31;;;;;;;20.30;13.00;;;;;;;;;;5048380;28;20041;-72
2021/11/06 07:06:57;;;;;;;18.55;11.40;;;;;;;;;;5050397;28;20071;-72
2021/11/06 07:09:24;;;;;;;12.93;7.82;;;;;;;;;;5055068;28;20898;-71
2021/11/06 07:11:50;;;;;;;12.18;6.10;;;;;;;;;;5062250;28;20025;-72
2021/11/06 07:14:16;;;;;;;39.47;21.05;;;;;;;;;;5062446;28;20043;-72
2021/11/06 07:16:46;;;;;;;42.05;20.65;;;;;;;;;;5054176;28;20100;-72
2021/11/06 07:19:12;;;;;;;26.15;14.95;;;;;;;;;;5057641;28;20024;-72
2021/11/06 07:21:39;;;;;;;22.20;11.80;;;;;;;;;;5059658;28;20033;-72
2021/11/06 07:24:05;;;;;;;21.20;11.85;;;;;;;;;;5041673;28;20033;-73
2021/11/06 07:26:31;;;;;;;19.92;11.60;;;;;;;;;;5066584;28;20032;-72
2021/11/06 07:28:58;;;;;;;17.50;10.32;;;;;;;;;;5063976;28;20036;-72
2021/11/06 07:31:24;;;;;;;22.65;14.00;;;;;;;;;;5060767;28;20051;-72
2021/11/06 07:33:53;;;;;;;25.30;10.30;;;;;;;;;;5059224;28;20029;-72
2021/11/06 07:36:19;;;;;;;15.45;9.25;;;;;;;;;;5062562;28;20036;-72
2021/11/06 07:38:45;;;;;;;15.68;9.25;;;;;;;;;;5061043;28;20028;-72
2021/11/06 07:41:12;;;;;;;18.85;10.38;;;;;;;;;;5051406;28;20029;-72
2021/11/06 07:43:38;;;;;;;19.73;10.48;;;;;;;;;;5062379;28;20351;-72
2021/11/06 07:46:07;;;;;;;18.25;9.60;;;;;;;;;;5057003;28;20060;-73
2021/11/06 07:48:33;;;;;;;15.65;9.40;;;;;;;;;;5057910;28;20081;-72
2021/11/06 07:51:00;;;;;;;15.20;8.80;;;;;;;;;;5054862;28;20036;-72
2021/11/06 07:53:26;;;;;;;14.10;9.10;;;;;;;;;;5060639;28;20029;-73
2021/11/06 07:55:52;;;;;;;17.20;10.00;;;;;;;;;;5072148;28;20024;-73
2021/11/06 07:58:18;;;;;;;16.58;10.40;;;;;;;;;;5057958;28;20049;-72
2021/11/06 08:00:44;;;;;;;16.58;10.55;;;;;;;;;;5065899;28;20059;-73
2021/11/06 08:03:11;;;;;;;20.02;10.82;;;;;;;;;;5062571;28;20029;-72
2021/11/06 08:05:37;;;;;;;17.08;8.95;;;;;;;;;;5066054;28;20171;-72
2021/11/06 08:08:03;;;;;;;20.02;9.60;;;;;;;;;;5065311;28;20025;-72
2021/11/06 08:10:29;;;;;;;21.58;10.35;;;;;;;;;;5061558;28;20052;-73
2021/11/06 08:12:59;;;;;;;17.23;9.50;;;;;;;;;;5060813;28;20031;-72
2021/11/06 08:15:25;;;;;;;17.65;10.40;;;;;;;;;;5061270;28;20055;-73
2021/11/06 08:17:53;;;;;;;13.38;9.00;;;;;;;;;;5060447;28;20025;-72
2021/11/06 08:20:19;;;;;;;15.27;9.40;;;;;;;;;;5062860;28;20102;-73
2021/11/06 08:22:45;;;;;;;13.63;8.07;;;;;;;;;;5066759;28;20035;-72
2021/11/06 08:25:15;;;;;;;13.45;7.80;;;;;;;;;;5060757;28;20417;-72
2021/11/06 08:27:42;;;;;;;14.73;8.35;;;;;;;;;;5065038;28;20031;-72
2021/11/06 08:30:08;;;;;;;14.20;7.95;;;;;;;;;;5064033;28;20037;-72
2021/11/06 08:32:34;;;;;;;18.50;9.55;;;;;;;;;;5066325;28;20111;-72
2021/11/06 08:35:00;;;;;;;31.17;12.95;;;;;;;;;;5064364;28;20071;-72
2021/11/06 08:37:26;;;;;;;35.15;17.83;;;;;;;;;;5066060;28;20400;-72
2021/11/06 08:39:52;;;;;;;35.30;17.75;;;;;;;;;;5060354;28;20051;-72
2021/11/06 08:42:18;;;;;;;26.38;15.43;;;;;;;;;;5060677;28;20040;-72
2021/11/06 08:44:44;;;;;;;19.98;13.18;;;;;;;;;;5061243;28;20045;-72
2021/11/06 08:47:10;;;;;;;24.85;13.40;;;;;;;;;;5055799;28;20450;-72
2021/11/06 08:49:36;;;;;;;16.70;8.15;;;;;;;;;;5061371;28;20044;-73
2021/11/06 08:52:03;;;;;;;8.15;4.50;;;;;;;;;;5062442;28;20025;-72
2021/11/06 08:54:29;;;;;;;7.97;4.30;;;;;;;;;;5058394;28;20051;-72
2021/11/06 08:56:55;;;;;;;9.57;4.80;;;;;;;;;;5062836;28;20103;-72
2021/11/06 08:59:22;;;;;;;15.00;6.63;;;;;;;;;;5063732;28;20418;-74
2021/11/06 09:01:49;;;;;;;10.18;5.20;;;;;;;;;;5043088;28;20035;-73
2021/11/06 09:04:15;;;;;;;9.65;4.40;;;;;;;;;;5064983;28;20039;-73
2021/11/06 09:06:42;;;;;;;7.65;4.10;;;;;;;;;;5057176;28;20039;-73
2021/11/06 09:09:11;;;;;;;10.57;4.30;;;;;;;;;;5062534;28;20699;-73
2021/11/06 09:11:37;;;;;;;6.60;4.07;;;;;;;;;;5056388;28;20032;-73
2021/11/06 09:14:04;;;;;;;11.18;5.90;;;;;;;;;;5049776;28;20040;-73
2021/11/06 09:16:30;;;;;;;27.70;11.95;;;;;;;;;;5051525;28;20033;-71
2021/11/06 09:18:56;;;;;;;40.03;17.67;;;;;;;;;;5054950;28;20374;-71
2021/11/06 09:21:24;;;;;;;28.73;10.07;;;;;;;;;;5056042;28;20048;-71
2021/11/06 09:23:51;;;;;;;17.55;7.75;;;;;;;;;;5064660;28;20481;-71
2021/11/06 09:26:18;;;;;;;11.30;6.10;;;;;;;;;;5054459;28;20081;-72
2021/11/06 09:28:44;;;;;;;15.30;6.07;;;;;;;;;;5061944;28;20074;-71
2021/11/06 09:31:11;;;;;;;73.07;10.90;;;;;;;;;;5059319;28;20035;-73
2021/11/06 09:33:38;;;;;;;20.20;4.75;;;;;;;;;;5058607;28;20033;-73
2021/11/06 09:36:04;;;;;;;6.57;3.30;;;;;;;;;;5062904;28;20029;-73
2021/11/06 09:38:30;;;;;;;4.82;2.10;;;;;;;;;;5063818;28;20100;-73
2021/11/06 09:40:59;;;;;;;6.68;2.55;;;;;;;;;;5057857;28;20044;-72
2021/11/06 09:43:25;;;;;;;3.30;1.58;;;;;;;;;;5058075;28;20397;-73
2021/11/06 09:45:53;;;;;;;6.72;2.70;;;;;;;;;;5057093;28;20804;-73
2021/11/06 09:48:19;;;;;;;5.32;2.60;;;;;;;;;;5062850;28;20043;-72
2021/11/06 09:50:45;;;;;;;17.55;8.73;;;;;;;;;;5063178;28;20121;-73
2021/11/06 09:53:11;;;;;;;11.63;3.88;;;;;;;;;;5061755;28;20377;-73
2021/11/06 09:55:37;;;;;;;8.88;3.10;;;;;;;;;;5060377;28;20036;-73
2021/11/06 09:58:03;;;;;;;8.30;3.80;;;;;;;;;;5063494;28;20052;-74
2021/11/06 10:00:29;;;;;;;6.95;3.60;;;;;;;;;;5061189;28;20048;-73
2021/11/06 10:02:56;;;;;;;8.18;3.63;;;;;;;;;;5059817;28;20032;-73
2021/11/06 10:05:41;;;;;;;8.27;2.83;;;;;;;;;;5059534;28;20032;-73
2021/11/06 10:08:21;;;;;;;7.22;2.20;;;;;;;;;;5059531;28;20038;-73
2021/11/06 10:10:47;;;;;;;16.70;9.68;;;;;;;;;;5058266;28;20052;-72
2021/11/06 10:13:14;;;;;;;9.63;3.65;;;;;;;;;;5055884;28;20031;-74
2021/11/06 10:15:44;;;;;;;5.78;2.55;;;;;;;;;;5061161;28;20039;-73
2021/11/06 10:18:20;;;;;;;4.60;2.50;;;;;;;;;;5055468;28;20095;-73
2021/11/06 10:20:49;;;;;;;4.65;1.98;;;;;;;;;;5056902;28;20032;-73
2021/11/06 10:23:15;;;;;;;6.65;3.05;;;;;;;;;;5060855;28;20063;-73
2021/11/06 10:25:41;;;;;;;7.15;3.17;;;;;;;;;;5058679;28;20036;-73
2021/11/06 10:28:09;;;;;;;6.50;2.03;;;;;;;;;;5062265;28;20066;-73
2021/11/06 10:30:39;;;;;;;6.97;3.30;;;;;;;;;;5058059;28;20042;-73
2021/11/06 10:33:13;;;;;;;8.32;3.30;;;;;;;;;;5061890;28;20035;-73
2021/11/06 10:35:52;;;;;;;8.40;3.13;;;;;;;;;;5055562;28;20036;-73
2021/11/06 10:38:17;;;;;;;6.82;3.40;;;;;;;;;;5060686;28;20032;-73
2021/11/06 10:40:52;;;;;;;8.23;4.25;;;;;;;;;;5056995;28;20037;-73
2021/11/06 10:43:19;;;;;;;5.13;2.20;;;;;;;;;;5062394;28;20053;-73
2021/11/06 10:45:50;;;;;;;5.78;1.70;;;;;;;;;;5060213;28;20469;-73
2021/11/06 10:48:17;;;;;;;3.92;1.65;;;;;;;;;;5055132;28;20024;-73
2021/11/06 10:50:49;;;;;;;5.22;2.22;;;;;;;;;;5058078;28;20055;-73
2021/11/06 10:53:17;;;;;;;5.53;2.35;;;;;;;;;;5056363;28;20811;-72
2021/11/06 10:55:44;;;;;;;5.60;2.17;;;;;;;;;;5058347;28;20036;-73
2021/11/06 10:58:21;;;;;;;9.00;2.72;;;;;;;;;;5060752;28;20478;-71
2021/11/06 11:00:51;;;;;;;6.55;2.28;;;;;;;;;;5060899;28;20037;-73
2021/11/06 11:03:30;;;;;;;4.95;2.40;;;;;;;;;;5058727;28;20040;-74
2021/11/06 11:05:57;;;;;;;5.10;1.85;;;;;;;;;;5056156;28;20041;-72
2021/11/06 11:08:24;;;;;;;4.93;2.22;;;;;;;;;;5055618;28;20037;-74
2021/11/06 11:10:50;;;;;;;4.72;2.60;;;;;;;;;;5059667;28;20037;-73
2021/11/06 11:13:19;;;;;;;4.35;2.00;;;;;;;;;;5062769;28;20728;-74
2021/11/06 11:15:48;;;;;;;6.93;2.70;;;;;;;;;;5063227;28;20025;-73
2021/11/06 11:18:29;;;;;;;5.20;2.38;;;;;;;;;;5060718;28;20040;-73
2021/11/06 11:21:06;;;;;;;5.00;2.72;;;;;;;;;;5064236;28;20028;-73
2021/11/06 11:23:32;;;;;;;7.47;3.05;;;;;;;;;;5053874;28;20806;-74
2021/11/06 11:25:58;;;;;;;5.07;2.90;;;;;;;;;;5065204;28;21619;-74
2021/11/06 11:28:25;;;;;;;4.60;2.15;;;;;;;;;;5056588;28;20038;-73
2021/11/06 11:30:52;;;;;;;6.18;2.38;;;;;;;;;;5061154;28;20442;-73
2021/11/06 11:33:19;;;;;;;5.93;2.20;;;;;;;;;;5065464;28;20048;-74
2021/11/06 11:35:45;;;;;;;4.40;2.22;;;;;;;;;;5064320;28;20675;-73
2021/11/06 11:38:13;;;;;;;4.85;2.15;;;;;;;;;;5067832;28;20104;-74
2021/11/06 11:40:42;;;;;;;4.07;2.40;;;;;;;;;;5066016;28;20074;-73
2021/11/06 11:43:17;;;;;;;5.00;2.00;;;;;;;;;;5064950;28;20032;-74
2021/11/06 11:45:49;;;;;;;6.65;2.70;;;;;;;;;;5065161;28;20160;-74
2021/11/06 11:48:20;;;;;;;4.70;2.60;;;;;;;;;;5060016;28;20127;-74
2021/11/06 11:50:47;;;;;;;4.47;2.22;;;;;;;;;;5056693;28;20044;-73
2021/11/06 11:53:25;;;;;;;8.90;2.30;;;;;;;;;;5060579;28;20029;-74
2021/11/06 11:55:55;;;;;;;6.03;2.38;;;;;;;;;;5059887;28;20033;-73
2021/11/06 11:58:23;;;;;;;5.13;2.30;;;;;;;;;;5066494;28;20045;-74
2021/11/06 12:00:57;;;;;;;5.78;2.67;;;;;;;;;;5064779;28;20077;-73
2021/11/06 12:03:28;;;;;;;5.05;2.53;;;;;;;;;;5065692;28;20067;-74
2021/11/06 12:05:54;;;;;;;5.03;2.67;;;;;;;;;;5066071;28;20032;-73
2021/11/06 12:08:21;;;;;;;4.82;2.55;;;;;;;;;;5069687;28;20071;-73
2021/11/06 12:11:00;;;;;;;5.30;2.95;;;;;;;;;;5063945;28;20047;-73
2021/11/06 12:13:26;;;;;;;9.75;3.10;;;;;;;;;;5058846;28;20028;-73
2021/11/06 12:16:00;;;;;;;5.55;2.83;;;;;;;;;;5068332;28;20083;-73
2021/11/06 12:18:35;;;;;;;9.70;2.88;;;;;;;;;;5069529;28;20037;-73
2021/11/06 12:21:18;;;;;;;7.47;2.25;;;;;;;;;;5064544;28;20722;-74
2021/11/06 12:23:46;;;;;;;5.88;2.95;;;;;;;;;;5062539;28;20075;-73
2021/11/06 12:26:13;;;;;;;9.30;2.45;;;;;;;;;;5066916;28;20029;-73
2021/11/06 12:28:39;;;;;;;5.78;2.47;;;;;;;;;;5067440;28;20115;-73
2021/11/06 12:31:26;;;;;;;3.65;1.70;;;;;;;;;;5063773;28;20486;-73
2021/11/06 12:33:52;;;;;;;7.25;2.70;;;;;;;;;;5064477;28;20060;-74
2021/11/06 12:36:18;;;;;;;5.68;1.98;;;;;;;;;;5061160;28;20449;-74
2021/11/06 12:38:44;;;;;;;60.65;4.45;;;;;;;;;;5064116;28;20039;-74
2021/11/06 12:41:11;;;;;;;8.50;2.22;;;;;;;;;;5055060;28;20561;-74
2021/11/06 12:43:49;;;;;;;4.40;2.03;;;;;;;;;;5058807;28;20032;-74
2021/11/06 12:46:18;;;;;;;8.00;2.15;;;;;;;;;;5062666;28;20040;-74
2021/11/06 12:48:45;;;;;;;7.03;2.90;;;;;;;;;;5068383;28;20133;-72
2021/11/06 12:51:13;;;;;;;6.70;2.47;;;;;;;;;;5057641;28;20425;-72
2021/11/06 12:53:41;;;;;;;5.47;2.15;;;;;;;;;;5062250;28;20040;-74
2021/11/06 12:56:12;;;;;;;4.85;2.45;;;;;;;;;;5041404;28;20024;-72
2021/11/06 12:58:39;;;;;;;6.47;2.22;;;;;;;;;;5062518;28;20041;-72
2021/11/06 13:01:18;;;;;;;6.05;2.50;;;;;;;;;;5066159;28;20068;-72
2021/11/06 13:03:45;;;;;;;5.93;1.85;;;;;;;;;;5059413;28;20063;-72
2021/11/06 13:06:21;;;;;;;5.82;1.90;;;;;;;;;;5064125;28;20032;-74
2021/11/06 13:09:03;;;;;;;3.97;1.40;;;;;;;;;;5043029;28;20036;-72
2021/11/06 13:11:48;;;;;;;3.25;1.50;;;;;;;;;;5062811;28;20497;-72
2021/11/06 13:14:33;;;;;;;6.45;2.47;;;;;;;;;;5065445;28;20032;-72
2021/11/06 13:17:12;;;;;;;5.55;1.70;;;;;;;;;;5061340;28;20029;-73
2021/11/06 13:19:41;;;;;;;4.63;1.92;;;;;;;;;;5061758;28;20032;-72
2021/11/06 13:22:07;;;;;;;3.80;1.55;;;;;;;;;;5062968;28;20107;-73
2021/11/06 13:24:57;;;;;;;5.72;1.95;;;;;;;;;;5064319;28;20394;-72
2021/11/06 13:27:36;;;;;;;6.60;2.20;;;;;;;;;;5028598;28;20122;-72
2021/11/06 13:30:20;;;;;;;3.95;1.67;;;;;;;;;;5059293;28;20041;-72
2021/11/06 13:32:54;;;;;;;6.25;2.83;;;;;;;;;;5063691;28;20036;-72
2021/11/06 13:35:20;;;;;;;9.43;3.65;;;;;;;;;;5060597;28;20082;-72
2021/11/06 13:37:47;;;;;;;5.18;2.08;;;;;;;;;;5063316;28;20025;-72
2021/11/06 13:40:13;;;;;;;4.82;1.70;;;;;;;;;;5067041;28;20078;-72
2021/11/06 13:42:39;;;;;;;6.75;1.83;;;;;;;;;;5061339;28;20071;-72
2021/11/06 13:45:12;;;;;;;4.53;2.22;;;;;;;;;;5070520;28;20067;-72
2021/11/06 13:47:44;;;;;;;5.32;1.55;;;;;;;;;;5063991;28;20074;-72
2021/11/06 13:50:11;;;;;;;4.60;2.28;;;;;;;;;;5066024;28;20037;-72
2021/11/06 13:52:39;;;;;;;6.00;2.47;;;;;;;;;;5064957;28;20127;-72
2021/11/06 13:55:14;;;;;;;6.75;2.10;;;;;;;;;;5056638;28;20029;-72
2021/11/06 13:57:41;;;;;;;6.95;2.60;;;;;;;;;;5060116;28;20052;-72
2021/11/06 14:00:11;;;;;;;3.50;1.70;;;;;;;;;;5053879;28;20082;-72
2021/11/06 14:02:39;;;;;;;8.80;1.98;;;;;;;;;;5054651;28;20151;-72
2021/11/06 14:05:11;;;;;;;7.68;3.03;;;;;;;;;;5067960;28;20135;-72
2021/11/06 14:07:41;;;;;;;6.18;3.05;;;;;;;;;;5057051;28;20421;-72
2021/11/06 14:10:14;;;;;;;6.82;3.30;;;;;;;;;;5060714;28;20033;-72
2021/11/06 14:12:40;;;;;;;4.63;2.53;;;;;;;;;;5061921;28;20020;-73
2021/11/06 14:15:19;;;;;;;7.63;2.90;;;;;;;;;;5059521;28;20037;-72
2021/11/06 14:17:50;;;;;;;6.78;2.72;;;;;;;;;;5061151;28;20194;-72
2021/11/06 14:20:18;;;;;;;4.85;2.50;;;;;;;;;;5065299;28;20060;-72
2021/11/06 14:22:45;;;;;;;7.63;2.85;;;;;;;;;;5059239;28;20561;-72
2021/11/06 14:25:23;;;;;;;6.07;2.63;;;;;;;;;;5065619;28;20473;-72
2021/11/06 14:28:04;;;;;;;5.28;2.50;;;;;;;;;;5058920;28;20028;-72
2021/11/06 14:30:31;;;;;;;6.22;2.92;;;;;;;;;;5063978;28;20036;-73
2021/11/06 14:32:59;;;;;;;7.28;3.33;;;;;;;;;;5060020;28;20033;-73
2021/11/06 14:35:30;;;;;;;7.88;3.25;;;;;;;;;;5053434;28;20028;-72